createdAt,value
2023-01-17T00:02:16.570Z,45.97
2023-01-17T00:05:02.122Z,47.70
2023-01-17T00:07:48.019Z,49.78
2023-01-17T00:10:17.972Z,43.20
2023-01-17T00:12:53.380Z,45.42
2023-01-17T00:15:22.967Z,44.00
2023-01-17T00:17:50.638Z,48.13
2023-01-17T00:20:38.959Z,46.22
2023-01-17T00:23:34.310Z,40.90
2023-01-17T00:26:04.217Z,42.97
2023-01-17T00:28:36.889Z,45.00
2023-01-17T00:31:05.391Z,44.35
2023-01-17T00:33:33.075Z,43.92
2023-01-17T00:36:01.117Z,48.90
2023-01-17T00:38:31.059Z,45.38
2023-01-17T00:41:06.354Z,38.65
2023-01-17T00:43:52.763Z,34.13
2023-01-17T00:46:38.771Z,29.90
2023-01-17T00:49:25.204Z,25.65
2023-01-17T00:52:10.806Z,25.85
2023-01-17T00:54:56.850Z,30.80
2023-01-17T00:57:42.438Z,30.25
2023-01-17T01:00:29.194Z,32.92
2023-01-17T01:03:14.916Z,30.38
2023-01-17T01:06:00.610Z,30.35
2023-01-17T01:08:48.521Z,29.90
2023-01-17T01:11:37.623Z,28.40
2023-01-17T01:14:24.393Z,29.42
2023-01-17T01:17:10.077Z,29.83
2023-01-17T01:19:55.631Z,31.48
2023-01-17T01:22:41.304Z,29.20
2023-01-17T01:25:26.794Z,35.08
2023-01-17T01:28:20.881Z,28.25
2023-01-17T01:31:06.173Z,29.95
2023-01-17T01:33:33.181Z,29.15
2023-01-17T01:35:59.969Z,25.90
2023-01-17T01:38:27.159Z,27.00
2023-01-17T01:40:56.384Z,27.02
2023-01-17T01:43:45.116Z,23.27
2023-01-17T01:46:34.337Z,19.42
2023-01-17T01:49:04.095Z,20.95
2023-01-17T01:51:41.593Z,22.17
2023-01-17T01:56:41.744Z,22.38
2023-01-17T01:59:11.280Z,20.70
2023-01-17T02:01:38.275Z,20.55
2023-01-17T02:04:10.109Z,18.05
2023-01-17T02:06:45.981Z,17.30
2023-01-17T02:09:17.139Z,18.67
2023-01-17T02:11:46.232Z,18.13
2023-01-17T02:14:18.310Z,19.65
2023-01-17T02:17:03.614Z,18.10
2023-01-17T02:20:01.052Z,15.02
2023-01-17T02:22:33.552Z,13.50
2023-01-17T02:25:28.171Z,15.65
2023-01-17T02:28:32.463Z,15.52
2023-01-17T02:31:09.742Z,16.77
2023-01-17T02:33:44.808Z,17.08
2023-01-17T02:36:51.433Z,15.40
2023-01-17T02:39:30.099Z,14.05
2023-01-17T02:42:09.828Z,11.07
2023-01-17T02:44:41.804Z,10.60
2023-01-17T02:47:25.483Z,9.75
2023-01-17T02:50:01.460Z,11.35
2023-01-17T02:52:56.569Z,10.55
2023-01-17T02:56:14.122Z,8.80
2023-01-17T02:59:09.743Z,7.90
2023-01-17T03:01:58.292Z,9.60
2023-01-17T03:04:37.718Z,9.23
2023-01-17T03:07:09.846Z,7.20
2023-01-17T03:09:38.673Z,8.85
2023-01-17T03:12:06.269Z,7.32
2023-01-17T03:14:33.722Z,9.80
2023-01-17T03:17:00.669Z,8.80
2023-01-17T03:19:27.870Z,10.27
2023-01-17T03:21:54.932Z,7.15
2023-01-17T03:24:22.020Z,6.28
2023-01-17T03:26:49.187Z,8.68
2023-01-17T03:29:17.646Z,7.32
2023-01-17T03:31:44.736Z,7.75
2023-01-17T03:34:11.852Z,7.07
2023-01-17T03:36:38.659Z,6.90
2023-01-17T03:39:05.748Z,8.10
2023-01-17T03:41:32.599Z,9.10
2023-01-17T03:44:00.894Z,9.55
2023-01-17T03:46:28.820Z,11.30
2023-01-17T03:48:55.989Z,9.65
2023-01-17T03:51:23.035Z,9.18
2023-01-17T03:53:52.001Z,7.78
2023-01-17T03:56:19.112Z,11.52
2023-01-17T03:58:46.222Z,10.52
2023-01-17T04:01:13.536Z,9.70
2023-01-17T04:03:40.857Z,9.10
2023-01-17T04:06:07.976Z,10.50
2023-01-17T04:08:35.114Z,12.40
2023-01-17T04:11:02.179Z,11.98
2023-01-17T04:13:29.397Z,12.10
2023-01-17T04:15:56.453Z,11.80
2023-01-17T04:18:24.587Z,12.93
2023-01-17T04:20:51.890Z,13.90
2023-01-17T04:23:19.636Z,14.05
2023-01-17T04:25:46.547Z,13.80
2023-01-17T04:28:14.076Z,13.15
2023-01-17T04:30:41.402Z,12.43
2023-01-17T04:33:08.586Z,14.63
2023-01-17T04:35:36.152Z,13.48
2023-01-17T04:38:03.303Z,12.68
2023-01-17T04:40:30.134Z,12.23
2023-01-17T04:42:58.084Z,13.13
2023-01-17T04:45:25.230Z,15.52
2023-01-17T04:47:52.682Z,19.15
2023-01-17T04:50:19.698Z,12.70
2023-01-17T04:52:46.827Z,13.80
2023-01-17T04:55:13.729Z,14.98
2023-01-17T04:57:40.893Z,14.32
2023-01-17T05:00:08.553Z,13.93
2023-01-17T05:02:35.689Z,13.45
2023-01-17T05:05:02.566Z,13.27
2023-01-17T05:07:29.764Z,14.85
2023-01-17T05:09:56.681Z,13.68
2023-01-17T05:12:23.813Z,13.95
2023-01-17T05:14:50.858Z,18.42
2023-01-17T05:17:18.057Z,24.20
2023-01-17T05:19:45.205Z,58.70
2023-01-17T05:22:16.256Z,75.60
2023-01-17T05:24:44.840Z,68.55
2023-01-17T05:27:12.783Z,57.38
2023-01-17T05:29:40.171Z,30.42
2023-01-17T05:32:07.718Z,21.58
2023-01-17T05:34:35.154Z,24.15
2023-01-17T05:37:02.624Z,29.65
2023-01-17T05:39:31.066Z,40.70
2023-01-17T05:41:59.288Z,57.20
2023-01-17T05:44:27.739Z,41.35
2023-01-17T05:46:56.181Z,100.95
2023-01-17T05:49:23.097Z,32.22
2023-01-17T05:51:50.442Z,26.02
2023-01-17T05:54:17.489Z,28.20
2023-01-17T05:56:44.602Z,28.98
2023-01-17T05:59:14.043Z,32.30
2023-01-17T06:01:41.420Z,31.00
2023-01-17T06:04:08.302Z,33.42
2023-01-17T06:06:35.450Z,25.27
2023-01-17T06:09:02.474Z,21.13
2023-01-17T06:11:29.625Z,21.55
2023-01-17T06:13:56.518Z,21.95
2023-01-17T06:16:23.741Z,23.27
2023-01-17T06:18:51.640Z,27.75
2023-01-17T06:21:19.776Z,24.95
2023-01-17T06:23:46.873Z,27.50
2023-01-17T06:26:14.043Z,31.08
2023-01-17T06:28:41.288Z,27.60
2023-01-17T06:31:09.237Z,29.17
2023-01-17T06:33:36.337Z,28.77
2023-01-17T06:36:03.752Z,26.27
2023-01-17T06:38:30.775Z,26.45
2023-01-17T06:41:00.462Z,30.15
2023-01-17T06:43:32.675Z,30.17
2023-01-17T06:46:01.262Z,28.50
2023-01-17T06:48:28.309Z,28.60
2023-01-17T06:50:57.716Z,27.52
2023-01-17T06:53:24.687Z,30.17
2023-01-17T06:55:52.615Z,32.03
2023-01-17T06:58:19.445Z,31.65
2023-01-17T07:00:46.925Z,25.80
2023-01-17T07:03:20.114Z,28.83
2023-01-17T07:05:48.211Z,28.35
2023-01-17T07:08:16.996Z,27.75
2023-01-17T07:10:45.681Z,24.88
2023-01-17T07:13:13.596Z,29.88
2023-01-17T07:15:40.832Z,33.95
2023-01-17T07:18:08.099Z,27.77
2023-01-17T07:20:35.230Z,26.63
2023-01-17T07:23:02.101Z,29.98
2023-01-17T07:25:29.328Z,26.70
2023-01-17T07:27:57.738Z,26.75
2023-01-17T07:30:25.457Z,28.05
2023-01-17T07:32:53.772Z,27.98
2023-01-17T07:35:21.694Z,32.63
2023-01-17T07:37:52.101Z,32.20
2023-01-17T07:40:20.667Z,44.78
2023-01-17T07:42:47.609Z,58.22
2023-01-17T07:45:16.533Z,53.08
2023-01-17T07:47:43.373Z,68.65
2023-01-17T07:50:11.316Z,50.10
2023-01-17T07:52:38.321Z,40.17
2023-01-17T07:55:06.268Z,34.83
2023-01-17T07:57:33.212Z,39.90
2023-01-17T08:00:00.289Z,52.17
2023-01-17T08:02:27.165Z,52.55
2023-01-17T08:04:54.308Z,45.58
2023-01-17T08:07:21.284Z,42.95
2023-01-17T08:09:50.252Z,120.95
2023-01-17T08:12:17.182Z,50.67
2023-01-17T08:14:44.666Z,189.20
2023-01-17T08:17:16.164Z,60.50
2023-01-17T08:19:43.566Z,43.97
2023-01-17T08:22:12.322Z,42.17
2023-01-17T08:24:39.552Z,65.72
2023-01-17T08:27:06.377Z,140.32
2023-01-17T08:29:33.593Z,78.30
2023-01-17T08:32:00.762Z,60.25
2023-01-17T08:34:28.123Z,82.30
2023-01-17T08:36:55.337Z,84.05
2023-01-17T08:39:22.698Z,70.25
2023-01-17T08:41:49.670Z,114.65
2023-01-17T08:44:16.971Z,91.10
2023-01-17T08:46:44.329Z,78.60
2023-01-17T08:49:12.384Z,144.98
2023-01-17T08:51:40.173Z,72.57
2023-01-17T08:54:09.638Z,94.18
2023-01-17T08:56:36.772Z,108.93
2023-01-17T08:59:03.956Z,81.70
2023-01-17T09:01:42.281Z,100.25
2023-01-17T09:04:10.254Z,35.55
2023-01-17T09:06:39.364Z,44.38
2023-01-17T09:09:07.456Z,29.00
2023-01-17T09:11:34.715Z,31.33
2023-01-17T09:14:01.981Z,33.53
2023-01-17T09:16:29.317Z,33.45
2023-01-17T09:18:57.890Z,31.20
2023-01-17T09:21:26.341Z,24.27
2023-01-17T09:23:53.731Z,29.05
2023-01-17T09:26:28.987Z,35.42
2023-01-17T09:28:58.783Z,91.68
2023-01-17T09:31:27.330Z,29.10
2023-01-17T09:33:55.935Z,41.72
2023-01-17T09:36:24.108Z,23.58
2023-01-17T09:38:56.466Z,29.10
2023-01-17T09:41:30.599Z,29.27
2023-01-17T09:43:57.464Z,24.05
2023-01-17T09:46:31.150Z,21.38
2023-01-17T09:49:26.950Z,18.77
2023-01-17T09:51:54.788Z,19.27
2023-01-17T09:54:23.928Z,19.63
2023-01-17T09:57:01.284Z,19.60
2023-01-17T10:00:03.453Z,16.40
2023-01-17T10:05:11.711Z,15.50
2023-01-17T10:10:28.557Z,15.13
2023-01-17T10:13:12.064Z,14.65
2023-01-17T10:16:13.682Z,15.40
2023-01-17T10:18:56.610Z,14.00
2023-01-17T10:21:54.556Z,17.95
2023-01-17T10:24:36.768Z,15.50
2023-01-17T10:27:19.551Z,15.52
2023-01-17T10:29:49.064Z,14.02
2023-01-17T10:32:16.167Z,17.45
2023-01-17T10:34:53.457Z,16.00
2023-01-17T10:37:36.460Z,13.48
2023-01-17T10:40:16.411Z,12.55
2023-01-17T10:42:47.521Z,15.88
2023-01-17T10:45:21.153Z,17.05
2023-01-17T10:47:54.070Z,15.13
2023-01-17T10:50:23.993Z,14.30
2023-01-17T10:53:00.326Z,16.50
2023-01-17T10:55:33.458Z,17.67
2023-01-17T10:58:01.508Z,15.15
2023-01-17T11:01:01.167Z,16.48
2023-01-17T11:03:28.957Z,13.60
2023-01-17T11:06:25.060Z,15.35
2023-01-17T11:08:57.269Z,17.77
2023-01-17T11:11:30.376Z,14.50
2023-01-17T11:14:00.930Z,17.67
2023-01-17T11:16:33.359Z,13.50
2023-01-17T11:19:28.708Z,16.85
2023-01-17T11:22:01.720Z,10.55
2023-01-17T11:24:36.455Z,12.45
2023-01-17T11:27:22.807Z,9.98
2023-01-17T11:30:04.071Z,10.70
2023-01-17T11:32:34.090Z,9.70
2023-01-17T11:35:31.301Z,10.45
2023-01-17T11:38:12.169Z,10.75
2023-01-17T11:40:44.274Z,12.68
2023-01-17T11:43:11.405Z,10.70
2023-01-17T11:45:39.790Z,8.32
2023-01-17T11:48:11.052Z,8.45
2023-01-17T11:50:41.231Z,7.97
2023-01-17T11:53:28.786Z,8.68
2023-01-17T11:56:22.456Z,7.65
2023-01-17T11:58:51.117Z,11.02
2023-01-17T12:01:27.169Z,8.60
2023-01-17T12:04:03.304Z,12.80
2023-01-17T12:06:57.730Z,32.58
2023-01-17T12:09:28.538Z,91.10
2023-01-17T12:12:24.081Z,142.70
2023-01-17T12:15:00.048Z,73.30
2023-01-17T12:17:55.067Z,24.15
2023-01-17T12:20:31.908Z,18.88
2023-01-17T12:23:17.435Z,39.60
2023-01-17T12:26:12.455Z,17.25
2023-01-17T12:29:01.030Z,7.07
2023-01-17T12:31:36.816Z,22.67
2023-01-17T12:34:33.354Z,7.80
2023-01-17T12:37:16.689Z,10.05
2023-01-17T12:39:51.500Z,12.38
2023-01-17T12:42:24.168Z,8.10
2023-01-17T12:45:02.871Z,9.23
2023-01-17T12:47:34.141Z,9.07
2023-01-17T12:50:05.372Z,9.65
2023-01-17T12:52:51.210Z,12.35
2023-01-17T12:55:36.750Z,11.23
2023-01-17T12:58:11.401Z,14.50
2023-01-17T13:00:39.724Z,9.02
2023-01-17T13:03:34.790Z,10.88
2023-01-17T13:06:03.479Z,9.52
2023-01-17T13:08:42.791Z,14.55
2023-01-17T13:11:27.894Z,12.20
2023-01-17T13:13:57.617Z,8.13
2023-01-17T13:16:32.408Z,9.60
2023-01-17T13:19:11.395Z,10.90
2023-01-17T13:21:38.849Z,7.30
2023-01-17T13:24:36.768Z,8.48
2023-01-17T13:27:18.649Z,7.25
2023-01-17T13:30:11.355Z,4.63
2023-01-17T13:33:15.257Z,6.70
2023-01-17T13:36:01.027Z,8.60
2023-01-17T13:38:35.882Z,8.27
2023-01-17T13:41:32.133Z,9.82
2023-01-17T13:44:19.652Z,10.15
2023-01-17T13:47:19.013Z,4.85
2023-01-17T13:49:56.506Z,7.93
2023-01-17T13:52:23.704Z,6.10
2023-01-17T13:54:51.874Z,7.47
2023-01-17T13:57:36.312Z,8.48
2023-01-17T14:00:15.835Z,9.73
2023-01-17T14:02:43.685Z,10.18
2023-01-17T14:05:42.413Z,12.38
2023-01-17T14:08:21.972Z,7.80
2023-01-17T14:10:53.195Z,9.05
2023-01-17T14:13:38.638Z,12.30
2023-01-17T14:16:27.182Z,9.77
2023-01-17T14:18:55.926Z,10.02
2023-01-17T14:21:32.133Z,8.52
2023-01-17T14:24:06.002Z,9.35
2023-01-17T14:26:37.640Z,10.90
2023-01-17T14:29:46.716Z,12.18
2023-01-17T14:32:17.632Z,6.50
2023-01-17T14:34:46.921Z,8.43
2023-01-17T14:37:50.742Z,7.68
2023-01-17T14:40:20.409Z,6.25
2023-01-17T14:42:52.855Z,8.07
2023-01-17T14:45:28.774Z,6.82
2023-01-17T14:47:58.832Z,11.40
2023-01-17T14:50:25.991Z,9.55
2023-01-17T14:53:11.272Z,11.60
2023-01-17T14:55:49.273Z,12.73
2023-01-17T14:58:41.604Z,12.02
2023-01-17T15:01:14.491Z,12.07
2023-01-17T15:03:48.167Z,11.63
2023-01-17T15:06:48.107Z,14.25
2023-01-17T15:09:27.325Z,13.65
2023-01-17T15:11:55.797Z,12.75
2023-01-17T15:14:36.460Z,18.30
2023-01-17T15:17:11.205Z,18.55
2023-01-17T15:19:43.796Z,24.42
2023-01-17T15:22:11.958Z,29.75
2023-01-17T15:24:44.942Z,30.20
2023-01-17T15:27:17.000Z,33.42
2023-01-17T15:29:46.775Z,29.38
2023-01-17T15:32:24.942Z,34.05
2023-01-17T15:34:52.700Z,32.63
2023-01-17T15:37:32.862Z,34.88
2023-01-17T15:40:19.533Z,34.72
2023-01-17T15:42:49.618Z,35.22
2023-01-17T15:45:21.927Z,65.85
2023-01-17T15:47:49.455Z,77.00
2023-01-17T15:50:30.051Z,114.90
2023-01-17T15:53:03.446Z,195.00
2023-01-17T15:55:38.120Z,218.82
2023-01-17T15:58:22.885Z,210.20
2023-01-17T16:00:49.799Z,189.68
2023-01-17T16:03:24.841Z,164.18
2023-01-17T16:05:54.590Z,154.35
2023-01-17T16:08:30.625Z,131.52
2023-01-17T16:11:02.141Z,116.60
2023-01-17T16:13:31.641Z,136.00
2023-01-17T16:16:20.652Z,150.93
2023-01-17T16:18:49.041Z,146.85
2023-01-17T16:21:23.448Z,154.30
2023-01-17T16:23:51.318Z,198.23
2023-01-17T16:26:18.390Z,217.98
2023-01-17T16:28:46.657Z,200.30
2023-01-17T16:31:13.743Z,179.93
2023-01-17T16:33:42.354Z,185.35
2023-01-17T16:36:16.656Z,198.55
2023-01-17T16:38:45.645Z,204.23
2023-01-17T16:41:12.780Z,247.40
2023-01-17T16:43:40.237Z,213.98
2023-01-17T16:46:07.884Z,211.20
2023-01-17T16:48:37.473Z,196.07
2023-01-17T16:51:07.879Z,190.65
2023-01-17T16:53:36.437Z,173.60
2023-01-17T16:56:16.616Z,181.43
2023-01-17T16:58:44.237Z,190.50
2023-01-17T17:01:12.013Z,182.38
2023-01-17T17:03:39.237Z,190.82
2023-01-17T17:06:06.364Z,248.57
2023-01-17T17:08:34.767Z,199.43
2023-01-17T17:11:27.791Z,171.65
2023-01-17T17:13:54.971Z,183.50
2023-01-17T17:16:33.965Z,169.85
2023-01-17T17:19:06.310Z,166.23
2023-01-17T17:21:34.684Z,140.82
2023-01-17T17:24:02.091Z,136.98
2023-01-17T17:26:34.973Z,138.82
2023-01-17T17:29:03.457Z,127.60
2023-01-17T17:31:30.588Z,129.70
2023-01-17T17:34:02.173Z,114.05
2023-01-17T17:36:30.023Z,111.10
2023-01-17T17:38:58.060Z,115.78
2023-01-17T17:41:28.240Z,123.25
2023-01-17T17:43:56.008Z,127.53
2023-01-17T17:46:24.868Z,119.63
2023-01-17T17:48:52.320Z,136.88
2023-01-17T17:51:26.699Z,131.55
2023-01-17T17:53:55.775Z,128.85
2023-01-17T17:56:23.888Z,102.55
2023-01-17T17:58:51.192Z,103.55
2023-01-17T18:01:18.240Z,110.35
2023-01-17T18:03:45.506Z,123.68
2023-01-17T18:06:13.315Z,124.75
2023-01-17T18:08:40.536Z,117.15
2023-01-17T18:11:11.344Z,116.55
2023-01-17T18:13:39.066Z,124.03
2023-01-17T18:16:08.588Z,112.07
2023-01-17T18:18:37.907Z,112.18
2023-01-17T18:21:15.019Z,127.22
2023-01-17T18:23:45.641Z,155.80
2023-01-17T18:26:18.155Z,156.38
2023-01-17T18:28:45.716Z,157.10
2023-01-17T18:31:13.300Z,192.10
2023-01-17T18:33:41.226Z,213.63
2023-01-17T18:36:10.581Z,181.10
2023-01-17T18:38:44.437Z,150.32
2023-01-17T18:41:16.218Z,159.15
2023-01-17T18:43:43.611Z,122.05
2023-01-17T18:46:12.080Z,149.02
2023-01-17T18:48:39.331Z,177.65
2023-01-17T18:51:11.166Z,162.80
2023-01-17T18:53:39.810Z,158.73
2023-01-17T18:56:10.655Z,144.90
2023-01-17T18:58:43.029Z,82.63
2023-01-17T19:01:35.291Z,111.50
2023-01-17T19:04:05.199Z,100.28
2023-01-17T19:06:35.064Z,74.30
2023-01-17T19:09:02.827Z,94.47
2023-01-17T19:11:30.417Z,73.30
2023-01-17T19:13:57.613Z,60.92
2023-01-17T19:16:30.655Z,51.92
2023-01-17T19:19:04.586Z,50.72
2023-01-17T19:21:32.239Z,49.78
2023-01-17T19:23:59.516Z,58.30
2023-01-17T19:26:27.571Z,53.08
2023-01-17T19:28:56.479Z,58.30
2023-01-17T19:31:26.223Z,57.08
2023-01-17T19:33:57.541Z,87.68
2023-01-17T19:36:31.391Z,88.40
2023-01-17T19:39:04.983Z,61.20
2023-01-17T19:41:34.443Z,42.60
2023-01-17T19:44:04.183Z,39.80
2023-01-17T19:46:31.486Z,41.45
2023-01-17T19:48:59.678Z,46.17
2023-01-17T19:51:27.483Z,45.40
2023-01-17T19:53:55.222Z,39.55
2023-01-17T19:56:24.977Z,38.40
2023-01-17T19:58:52.936Z,39.60
2023-01-17T20:01:29.629Z,54.35
2023-01-17T20:03:58.705Z,65.20
2023-01-17T20:06:31.316Z,50.95
2023-01-17T20:08:58.453Z,54.67
2023-01-17T20:11:27.489Z,35.60
2023-01-17T20:13:56.919Z,35.75
2023-01-17T20:16:25.474Z,40.10
2023-01-17T20:18:52.850Z,40.90
2023-01-17T20:21:26.078Z,46.00
2023-01-17T20:23:54.805Z,44.33
2023-01-17T20:26:31.282Z,54.72
2023-01-17T20:28:58.480Z,56.55
2023-01-17T20:31:25.963Z,41.90
2023-01-17T20:33:54.732Z,46.22
2023-01-17T20:36:24.580Z,50.28
2023-01-17T20:38:53.355Z,47.00
2023-01-17T20:41:24.153Z,45.70
2023-01-17T20:43:57.007Z,47.28
2023-01-17T20:46:27.246Z,56.10
2023-01-17T20:48:56.542Z,42.33
2023-01-17T20:51:25.848Z,46.92
2023-01-17T20:53:58.237Z,53.65
2023-01-17T20:56:25.932Z,69.97
2023-01-17T20:58:54.340Z,52.95
2023-01-17T21:01:24.163Z,57.78
2023-01-17T21:03:54.014Z,68.13
2023-01-17T21:06:22.412Z,67.05
2023-01-17T21:08:50.541Z,66.15
2023-01-17T21:11:21.011Z,66.25
2023-01-17T21:13:48.908Z,60.50
2023-01-17T21:16:19.199Z,55.67
2023-01-17T21:18:48.233Z,53.65
2023-01-17T21:21:22.143Z,56.15
2023-01-17T21:23:51.189Z,56.75
2023-01-17T21:26:19.717Z,56.08
2023-01-17T21:28:48.908Z,55.25
2023-01-17T21:31:24.728Z,73.38
2023-01-17T21:33:58.321Z,197.73
2023-01-17T21:36:32.614Z,81.80
2023-01-17T21:39:04.884Z,84.50
2023-01-17T21:41:38.245Z,79.82
2023-01-17T21:44:19.583Z,94.25
2023-01-17T21:46:47.028Z,85.80
2023-01-17T21:49:14.635Z,94.53
2023-01-17T21:52:03.057Z,85.85
2023-01-17T21:54:49.619Z,85.85
2023-01-17T21:57:38.632Z,89.45
2023-01-17T22:00:07.920Z,87.32
2023-01-17T22:02:34.899Z,83.38
2023-01-17T22:05:02.123Z,84.47
2023-01-17T22:07:29.255Z,86.75
2023-01-17T22:09:57.090Z,89.22
2023-01-17T22:12:24.234Z,90.38
2023-01-17T22:14:52.668Z,94.05
2023-01-17T22:17:21.098Z,74.57
2023-01-17T22:19:48.329Z,69.55
2023-01-17T22:22:15.391Z,63.85
2023-01-17T22:24:42.464Z,70.72
2023-01-17T22:27:10.038Z,67.78
2023-01-17T22:29:37.987Z,67.40
2023-01-17T22:32:05.244Z,70.40
2023-01-17T22:34:32.339Z,61.47
2023-01-17T22:37:00.561Z,42.90
2023-01-17T22:39:27.668Z,46.20
2023-01-17T22:41:54.543Z,50.75
2023-01-17T22:44:21.682Z,61.63
2023-01-17T22:46:48.501Z,49.03
2023-01-17T22:49:16.922Z,43.95
2023-01-17T22:51:43.886Z,45.00
2023-01-17T22:54:11.538Z,33.70
2023-01-17T22:56:38.525Z,35.35
2023-01-17T22:59:11.374Z,34.47
2023-01-17T23:01:42.515Z,35.30
2023-01-17T23:04:13.318Z,36.65
2023-01-17T23:06:41.289Z,33.25
2023-01-17T23:09:13.927Z,32.42
2023-01-17T23:11:52.816Z,34.10
2023-01-17T23:14:21.157Z,39.40
2023-01-17T23:17:10.516Z,36.75
2023-01-17T23:19:42.816Z,36.58
2023-01-17T23:22:21.376Z,40.33
2023-01-17T23:25:08.011Z,36.97
2023-01-17T23:27:57.665Z,40.13
2023-01-17T23:30:34.579Z,40.72
2023-01-17T23:33:04.303Z,40.92
2023-01-17T23:35:41.426Z,39.72
2023-01-17T23:38:33.994Z,45.60
2023-01-17T23:41:22.482Z,41.83
2023-01-17T23:43:53.975Z,41.55
2023-01-17T23:46:21.653Z,38.55
2023-01-17T23:48:48.497Z,41.00
2023-01-17T23:51:16.007Z,36.65
2023-01-17T23:53:43.066Z,32.60
2023-01-17T23:56:23.158Z,29.33
2023-01-17T23:58:50.422Z,28.02
